createdAt,value
2023-04-18T00:02:51.622Z,8.02
2023-04-18T00:05:53.477Z,8.50
2023-04-18T00:08:55.199Z,7.47
2023-04-18T00:11:56.963Z,7.55
2023-04-18T00:14:58.769Z,8.35
2023-04-18T00:18:03.641Z,8.02
2023-04-18T00:21:06.865Z,7.25
2023-04-18T00:24:08.922Z,6.40
2023-04-18T00:27:10.768Z,8.80
2023-04-18T00:30:12.976Z,8.43
2023-04-18T00:33:14.912Z,7.60
2023-04-18T00:36:19.580Z,8.40
2023-04-18T00:39:21.367Z,6.35
2023-04-18T00:42:25.510Z,6.30
2023-04-18T00:45:27.116Z,6.75
2023-04-18T00:48:30.081Z,8.68
2023-04-18T00:51:33.674Z,8.18
2023-04-18T00:54:36.316Z,8.43
2023-04-18T00:57:38.382Z,9.43
2023-04-18T01:00:40.835Z,8.95
2023-04-18T01:03:42.964Z,10.38
2023-04-18T01:06:45.704Z,7.32
2023-04-18T01:09:48.136Z,8.57
2023-04-18T01:12:49.768Z,9.65
2023-04-18T01:15:52.057Z,9.95
2023-04-18T01:18:56.452Z,9.93
2023-04-18T01:21:58.153Z,8.48
2023-04-18T01:24:59.837Z,10.35
2023-04-18T01:28:01.848Z,11.30
2023-04-18T01:31:05.106Z,9.15
2023-04-18T01:34:07.310Z,11.77
2023-04-18T01:37:09.598Z,8.80
2023-04-18T01:40:11.926Z,10.77
2023-04-18T01:43:13.698Z,8.90
2023-04-18T01:46:15.647Z,12.20
2023-04-18T01:49:20.589Z,10.38
2023-04-18T01:52:24.946Z,11.68
2023-04-18T01:55:26.754Z,10.90
2023-04-18T01:58:29.658Z,10.32
2023-04-18T02:01:31.799Z,10.20
2023-04-18T02:04:34.177Z,12.82
2023-04-18T02:07:36.106Z,11.50
2023-04-18T02:10:38.322Z,11.48
2023-04-18T02:13:40.223Z,12.68
2023-04-18T02:16:42.086Z,11.65
2023-04-18T02:19:43.897Z,13.93
2023-04-18T02:22:48.027Z,13.77
2023-04-18T02:25:50.945Z,10.80
2023-04-18T02:28:52.763Z,12.18
2023-04-18T02:31:58.571Z,12.52
2023-04-18T02:35:00.725Z,11.38
2023-04-18T02:38:02.968Z,11.80
2023-04-18T02:41:05.246Z,10.95
2023-04-18T02:44:09.524Z,10.25
2023-04-18T02:47:14.037Z,10.15
2023-04-18T02:50:18.603Z,11.00
2023-04-18T02:53:24.280Z,11.20
2023-04-18T02:56:29.028Z,10.30
2023-04-18T02:59:54.790Z,10.98
2023-04-18T03:02:56.730Z,8.85
2023-04-18T03:06:13.734Z,10.52
2023-04-18T03:09:17.049Z,10.55
2023-04-18T03:12:24.764Z,9.90
2023-04-18T03:15:27.180Z,11.60
2023-04-18T03:18:29.206Z,12.57
2023-04-18T03:21:33.902Z,12.18
2023-04-18T03:24:35.773Z,10.43
2023-04-18T03:27:40.531Z,12.05
2023-04-18T03:30:43.369Z,11.10
2023-04-18T03:33:46.099Z,11.38
2023-04-18T03:36:48.388Z,13.77
2023-04-18T03:39:51.540Z,14.95
2023-04-18T03:42:53.567Z,12.95
2023-04-18T03:45:56.379Z,15.25
2023-04-18T03:48:58.031Z,16.20
2023-04-18T03:51:59.801Z,15.98
2023-04-18T03:55:01.998Z,13.57
2023-04-18T03:58:08.120Z,16.58
2023-04-18T04:01:10.778Z,17.02
2023-04-18T04:04:15.302Z,16.83
2023-04-18T04:07:17.937Z,16.17
2023-04-18T04:10:19.803Z,17.23
2023-04-18T04:13:25.343Z,19.08
2023-04-18T04:16:28.414Z,21.45
2023-04-18T04:19:31.157Z,16.67
2023-04-18T04:22:53.431Z,16.20
2023-04-18T04:25:58.822Z,15.93
2023-04-18T04:29:19.128Z,17.75
2023-04-18T04:32:24.196Z,19.92
2023-04-18T04:35:26.732Z,18.30
2023-04-18T04:38:31.153Z,15.48
2023-04-18T04:41:33.762Z,18.83
2023-04-18T04:44:37.426Z,16.48
2023-04-18T04:47:39.324Z,16.02
2023-04-18T04:50:42.064Z,19.30
2023-04-18T04:53:46.433Z,17.00
2023-04-18T04:56:48.542Z,15.77
2023-04-18T04:59:50.783Z,16.33
2023-04-18T05:02:55.426Z,19.55
2023-04-18T05:06:00.287Z,16.90
2023-04-18T05:09:02.226Z,15.60
2023-04-18T05:12:04.800Z,15.57
2023-04-18T05:15:07.441Z,17.70
2023-04-18T05:18:09.432Z,16.77
2023-04-18T05:21:11.072Z,13.98
2023-04-18T05:24:12.875Z,14.30
2023-04-18T05:27:17.197Z,16.05
2023-04-18T05:30:20.142Z,14.70
2023-04-18T05:33:21.998Z,13.95
2023-04-18T05:36:24.072Z,14.35
2023-04-18T05:39:25.951Z,13.32
2023-04-18T05:42:27.715Z,14.80
2023-04-18T05:45:29.621Z,16.23
2023-04-18T05:48:31.373Z,12.18
2023-04-18T05:51:33.284Z,12.02
2023-04-18T05:54:35.279Z,14.20
2023-04-18T05:57:37.031Z,13.07
2023-04-18T06:00:39.734Z,15.48
2023-04-18T06:03:42.318Z,16.75
2023-04-18T06:06:44.451Z,14.75
2023-04-18T06:09:46.310Z,13.43
2023-04-18T06:12:48.405Z,15.05
2023-04-18T06:15:50.229Z,16.33
2023-04-18T06:18:52.258Z,15.30
2023-04-18T06:21:54.233Z,16.05
2023-04-18T06:24:56.180Z,13.57
2023-04-18T06:27:58.064Z,13.02
2023-04-18T06:30:59.799Z,13.38
2023-04-18T06:34:01.665Z,13.73
2023-04-18T06:37:03.929Z,14.40
2023-04-18T06:40:06.116Z,14.65
2023-04-18T06:43:08.616Z,13.77
2023-04-18T06:46:10.475Z,15.63
2023-04-18T06:49:12.542Z,13.70
2023-04-18T06:52:14.410Z,15.55
2023-04-18T06:55:16.345Z,14.07
2023-04-18T06:58:18.251Z,14.15
2023-04-18T07:01:20.323Z,14.15
2023-04-18T07:04:22.503Z,17.23
2023-04-18T07:07:24.527Z,14.80
2023-04-18T07:10:26.666Z,14.38
2023-04-18T07:13:28.983Z,14.75
2023-04-18T07:16:30.991Z,16.02
2023-04-18T07:19:32.827Z,13.98
2023-04-18T07:22:35.124Z,18.05
2023-04-18T07:25:37.780Z,16.58
2023-04-18T07:28:39.789Z,15.15
2023-04-18T07:31:41.860Z,14.65
2023-04-18T07:34:45.176Z,12.15
2023-04-18T07:37:47.436Z,13.75
2023-04-18T07:40:59.970Z,14.15
2023-04-18T07:44:02.642Z,13.15
2023-04-18T07:47:07.325Z,12.65
2023-04-18T07:50:10.237Z,13.30
2023-04-18T07:53:12.566Z,15.38
2023-04-18T07:56:14.566Z,12.15
2023-04-18T07:59:16.733Z,12.60
2023-04-18T08:02:19.212Z,12.50
2023-04-18T08:05:21.334Z,12.65
2023-04-18T08:08:23.516Z,14.13
2023-04-18T08:11:25.435Z,14.00
2023-04-18T08:14:29.886Z,13.55
2023-04-18T08:17:33.072Z,14.15
2023-04-18T08:20:37.326Z,13.02
2023-04-18T08:23:39.072Z,12.05
2023-04-18T08:26:41.041Z,16.48
2023-04-18T08:29:43.000Z,11.10
2023-04-18T08:32:44.705Z,12.30
2023-04-18T08:35:46.529Z,10.45
2023-04-18T08:38:48.502Z,11.98
2023-04-18T08:41:59.683Z,13.43
2023-04-18T08:45:02.170Z,10.93
2023-04-18T08:48:04.441Z,12.00
2023-04-18T08:51:06.316Z,9.43
2023-04-18T08:54:08.590Z,12.35
2023-04-18T08:57:12.716Z,10.20
2023-04-18T09:00:17.952Z,11.00
2023-04-18T09:03:37.455Z,11.80
2023-04-18T09:06:52.983Z,11.98
2023-04-18T09:09:59.730Z,12.95
2023-04-18T09:13:10.190Z,12.05
2023-04-18T09:16:12.020Z,11.63
2023-04-18T09:19:19.055Z,13.65
2023-04-18T09:22:20.946Z,12.73
2023-04-18T09:25:34.942Z,10.10
2023-04-18T09:28:38.605Z,10.93
2023-04-18T09:32:07.191Z,10.52
2023-04-18T09:35:09.613Z,8.43
2023-04-18T09:38:11.691Z,9.10
2023-04-18T09:41:16.839Z,11.00
2023-04-18T09:44:20.796Z,10.55
2023-04-18T09:47:22.796Z,12.15
2023-04-18T09:50:24.656Z,11.38
2023-04-18T09:53:28.204Z,9.60
2023-04-18T09:56:32.648Z,9.73
2023-04-18T09:59:44.786Z,10.40
2023-04-18T10:02:50.809Z,9.40
2023-04-18T10:05:54.428Z,9.98
2023-04-18T10:08:57.894Z,8.98
2023-04-18T10:12:02.381Z,11.20
2023-04-18T10:15:06.065Z,26.73
2023-04-18T10:18:15.082Z,8.00
2023-04-18T10:21:17.287Z,7.45
2023-04-18T10:24:53.247Z,8.93
2023-04-18T10:27:57.448Z,8.02
2023-04-18T10:31:04.148Z,9.30
2023-04-18T10:34:07.299Z,6.32
2023-04-18T10:37:09.596Z,6.78
2023-04-18T10:40:11.967Z,6.68
2023-04-18T10:43:13.974Z,6.45
2023-04-18T10:46:30.387Z,5.68
2023-04-18T10:49:38.833Z,9.25
2023-04-18T10:52:41.748Z,6.90
2023-04-18T10:55:55.026Z,6.20
2023-04-18T10:59:01.941Z,7.97
2023-04-18T11:02:34.919Z,7.10
2023-04-18T11:05:36.947Z,7.20
2023-04-18T11:08:39.265Z,7.05
2023-04-18T11:11:44.289Z,8.45
2023-04-18T11:14:50.155Z,7.35
2023-04-18T11:18:03.332Z,7.40
2023-04-18T11:21:05.779Z,8.45
2023-04-18T11:24:07.560Z,7.90
2023-04-18T11:27:11.239Z,6.88
2023-04-18T11:30:14.778Z,6.53
2023-04-18T11:33:16.814Z,8.50
2023-04-18T11:36:19.531Z,5.95
2023-04-18T11:39:22.248Z,7.53
2023-04-18T11:42:28.857Z,6.53
2023-04-18T11:45:31.318Z,7.88
2023-04-18T11:48:41.251Z,9.40
2023-04-18T11:51:46.480Z,6.80
2023-04-18T11:54:48.665Z,9.82
2023-04-18T11:58:03.359Z,8.13
2023-04-18T12:01:23.078Z,7.03
2023-04-18T12:04:25.361Z,8.07
2023-04-18T12:07:34.431Z,7.25
2023-04-18T12:10:36.401Z,7.88
2023-04-18T12:13:38.271Z,7.22
2023-04-18T12:16:41.679Z,7.18
2023-04-18T12:19:50.496Z,6.80
2023-04-18T12:22:54.337Z,6.32
2023-04-18T12:26:01.242Z,6.78
2023-04-18T12:29:03.100Z,8.00
2023-04-18T12:32:05.080Z,7.50
2023-04-18T12:35:07.762Z,9.20
2023-04-18T12:38:09.820Z,7.65
2023-04-18T12:41:11.673Z,6.10
2023-04-18T12:44:14.017Z,8.52
2023-04-18T12:47:16.516Z,10.60
2023-04-18T12:50:20.906Z,7.90
2023-04-18T12:53:22.800Z,8.07
2023-04-18T12:56:24.635Z,8.38
2023-04-18T12:59:26.549Z,7.95
2023-04-18T13:02:29.604Z,10.88
2023-04-18T13:05:34.021Z,7.25
2023-04-18T13:08:37.539Z,6.88
2023-04-18T13:11:39.369Z,11.25
2023-04-18T13:14:43.018Z,7.18
2023-04-18T13:17:45.448Z,7.43
2023-04-18T13:20:47.752Z,7.65
2023-04-18T13:23:49.797Z,7.53
2023-04-18T13:26:52.055Z,8.55
2023-04-18T13:29:55.246Z,6.05
2023-04-18T13:32:57.769Z,7.90
2023-04-18T13:35:59.618Z,8.68
2023-04-18T13:39:02.060Z,6.75
2023-04-18T13:42:04.671Z,8.20
2023-04-18T13:45:07.857Z,6.43
2023-04-18T13:48:10.069Z,6.72
2023-04-18T13:51:12.158Z,6.53
2023-04-18T13:54:16.558Z,7.72
2023-04-18T13:57:18.531Z,7.13
2023-04-18T14:00:20.875Z,8.13
2023-04-18T14:03:22.966Z,7.25
2023-04-18T14:06:27.745Z,8.50
2023-04-18T14:09:29.922Z,8.65
2023-04-18T14:12:32.001Z,6.90
2023-04-18T14:15:33.938Z,9.02
2023-04-18T14:18:35.889Z,7.65
2023-04-18T14:21:37.914Z,8.13
2023-04-18T14:24:40.083Z,8.55
2023-04-18T14:27:41.872Z,9.85
2023-04-18T14:30:44.843Z,8.60
2023-04-18T14:33:46.822Z,7.57
2023-04-18T14:36:48.880Z,6.93
2023-04-18T14:39:51.649Z,6.47
2023-04-18T14:42:53.864Z,8.15
2023-04-18T14:45:57.893Z,8.43
2023-04-18T14:49:01.354Z,8.52
2023-04-18T14:52:03.340Z,7.18
2023-04-18T14:55:06.953Z,6.60
2023-04-18T14:58:08.789Z,6.00
2023-04-18T15:01:10.750Z,6.65
2023-04-18T15:04:12.852Z,7.55
2023-04-18T15:07:18.447Z,7.10
2023-04-18T15:10:22.483Z,6.38
2023-04-18T15:13:27.724Z,6.55
2023-04-18T15:16:32.290Z,7.32
2023-04-18T15:19:35.682Z,8.05
2023-04-18T15:22:38.799Z,6.30
2023-04-18T15:25:41.422Z,7.97
2023-04-18T15:28:43.462Z,5.78
2023-04-18T15:31:45.630Z,6.05
2023-04-18T15:34:47.975Z,9.50
2023-04-18T15:37:51.437Z,6.97
2023-04-18T15:40:53.356Z,7.18
2023-04-18T15:43:55.489Z,6.18
2023-04-18T15:46:58.193Z,7.00
2023-04-18T15:50:00.786Z,5.88
2023-04-18T15:53:03.068Z,6.65
2023-04-18T15:56:06.371Z,6.32
2023-04-18T15:59:10.912Z,7.40
2023-04-18T16:02:12.627Z,7.18
2023-04-18T16:05:16.235Z,6.55
2023-04-18T16:08:18.424Z,7.25
2023-04-18T16:11:21.914Z,8.65
2023-04-18T16:14:23.558Z,7.63
2023-04-18T16:17:25.629Z,8.82
2023-04-18T16:20:27.866Z,6.55
2023-04-18T16:23:31.887Z,8.35
2023-04-18T16:26:33.793Z,6.38
2023-04-18T16:29:36.006Z,8.60
2023-04-18T16:32:38.980Z,8.10
2023-04-18T16:35:40.844Z,8.52
2023-04-18T16:38:42.775Z,8.20
2023-04-18T16:41:44.627Z,7.93
2023-04-18T16:44:47.459Z,7.47
2023-04-18T16:47:49.311Z,11.20
2023-04-18T16:50:51.207Z,8.40
2023-04-18T16:53:53.206Z,8.73
2023-04-18T16:56:55.080Z,9.63
2023-04-18T16:59:58.533Z,9.05
2023-04-18T17:03:00.597Z,16.00
2023-04-18T17:06:02.687Z,9.35
2023-04-18T17:09:06.548Z,9.27
2023-04-18T17:12:08.582Z,11.27
2023-04-18T17:15:11.390Z,11.27
2023-04-18T17:18:13.491Z,10.90
2023-04-18T17:21:15.763Z,10.18
2023-04-18T17:24:19.995Z,12.65
2023-04-18T17:27:22.028Z,11.82
2023-04-18T17:30:24.062Z,10.82
2023-04-18T17:33:25.904Z,11.95
2023-04-18T17:36:27.786Z,10.07
2023-04-18T17:39:31.441Z,12.48
2023-04-18T17:42:33.523Z,11.07
2023-04-18T17:45:35.549Z,9.27
2023-04-18T17:48:37.896Z,11.60
2023-04-18T17:51:39.935Z,9.98
2023-04-18T17:54:41.819Z,10.15
2023-04-18T17:57:43.640Z,10.98
2023-04-18T18:00:45.817Z,12.07
2023-04-18T18:03:48.244Z,10.90
2023-04-18T18:06:54.646Z,9.13
2023-04-18T18:09:56.472Z,12.68
2023-04-18T18:12:58.767Z,11.00
2023-04-18T18:16:02.659Z,13.70
2023-04-18T18:19:07.391Z,12.07
2023-04-18T18:22:09.554Z,11.55
2023-04-18T18:25:11.350Z,10.57
2023-04-18T18:28:13.104Z,11.95
2023-04-18T18:31:15.057Z,10.73
2023-04-18T18:34:17.221Z,10.25
2023-04-18T18:37:18.972Z,12.63
2023-04-18T18:40:20.882Z,11.68
2023-04-18T18:43:26.292Z,12.43
2023-04-18T18:46:28.232Z,13.65
2023-04-18T18:49:30.226Z,12.05
2023-04-18T18:52:32.715Z,11.02
2023-04-18T18:55:34.307Z,10.90
2023-04-18T18:58:35.990Z,11.18
2023-04-18T19:01:37.859Z,15.32
2023-04-18T19:04:39.732Z,13.95
2023-04-18T19:07:47.546Z,12.43
2023-04-18T19:10:49.443Z,13.65
2023-04-18T19:13:52.018Z,13.55
2023-04-18T19:16:55.887Z,12.05
2023-04-18T19:20:01.710Z,10.30
2023-04-18T19:23:03.807Z,9.63
2023-04-18T19:26:05.615Z,10.95
2023-04-18T19:29:07.949Z,10.07
2023-04-18T19:32:09.962Z,12.23
2023-04-18T19:35:13.279Z,11.77
2023-04-18T19:38:15.620Z,9.13
2023-04-18T19:41:17.595Z,10.85
2023-04-18T19:44:22.595Z,9.77
2023-04-18T19:47:24.605Z,11.70
2023-04-18T19:50:26.275Z,12.35
2023-04-18T19:53:28.640Z,22.23
2023-04-18T19:56:30.502Z,9.63
2023-04-18T19:59:32.365Z,9.75
2023-04-18T20:02:34.419Z,9.90
2023-04-18T20:05:36.659Z,9.98
2023-04-18T20:08:46.663Z,7.93
2023-04-18T20:11:48.988Z,6.17
2023-04-18T20:14:51.281Z,9.02
2023-04-18T20:17:53.224Z,5.95
2023-04-18T20:20:55.190Z,5.32
2023-04-18T20:23:58.549Z,7.75
2023-04-18T20:27:01.784Z,6.88
2023-04-18T20:30:04.656Z,5.47
2023-04-18T20:33:06.465Z,7.60
2023-04-18T20:36:08.471Z,7.03
2023-04-18T20:39:10.371Z,6.13
2023-04-18T20:42:14.782Z,6.50
2023-04-18T20:45:16.557Z,7.75
2023-04-18T20:48:18.788Z,6.72
2023-04-18T20:51:23.078Z,8.93
2023-04-18T20:54:24.735Z,6.60
2023-04-18T20:57:26.929Z,5.20
2023-04-18T21:00:28.727Z,8.25
2023-04-18T21:03:31.110Z,6.75
2023-04-18T21:06:32.982Z,5.60
2023-04-18T21:09:36.893Z,9.38
2023-04-18T21:12:39.969Z,5.63
2023-04-18T21:15:43.239Z,4.63
2023-04-18T21:18:45.136Z,5.85
2023-04-18T21:21:46.879Z,3.70
2023-04-18T21:24:48.930Z,4.40
2023-04-18T21:27:50.972Z,4.13
2023-04-18T21:30:52.629Z,5.15
2023-04-18T21:33:56.120Z,4.38
2023-04-18T21:36:57.990Z,4.93
2023-04-18T21:40:00.785Z,5.80
2023-04-18T21:43:02.511Z,5.20
2023-04-18T21:46:04.274Z,4.75
2023-04-18T21:49:07.158Z,4.80
2023-04-18T21:52:09.207Z,5.45
2023-04-18T21:55:10.854Z,4.20
2023-04-18T21:58:13.353Z,6.85
2023-04-18T22:01:15.179Z,5.05
2023-04-18T22:04:21.124Z,4.93
2023-04-18T22:07:24.681Z,5.90
2023-04-18T22:10:26.350Z,5.25
2023-04-18T22:13:37.789Z,6.63
2023-04-18T22:16:40.022Z,5.50
2023-04-18T22:19:44.517Z,4.97
2023-04-18T22:22:46.406Z,7.55
2023-04-18T22:25:48.685Z,6.20
2023-04-18T22:28:50.420Z,6.82
2023-04-18T22:31:52.274Z,5.70
2023-04-18T22:34:53.995Z,8.95
2023-04-18T22:37:57.097Z,6.78
2023-04-18T22:41:02.137Z,6.03
2023-04-18T22:44:04.639Z,6.53
2023-04-18T22:47:08.065Z,6.78
2023-04-18T22:50:10.151Z,5.75
2023-04-18T22:53:12.319Z,5.60
2023-04-18T22:56:14.028Z,7.75
2023-04-18T22:59:15.924Z,5.95
2023-04-18T23:02:17.750Z,8.23
2023-04-18T23:05:19.729Z,9.65
2023-04-18T23:08:22.828Z,5.45
2023-04-18T23:11:25.530Z,6.18
2023-04-18T23:14:27.670Z,6.65
2023-04-18T23:17:29.578Z,7.03
2023-04-18T23:20:31.434Z,5.90
2023-04-18T23:23:33.269Z,6.40
2023-04-18T23:26:35.040Z,7.55
2023-04-18T23:29:40.306Z,6.32
2023-04-18T23:32:42.316Z,6.32
2023-04-18T23:35:44.427Z,5.60
2023-04-18T23:38:46.663Z,6.05
2023-04-18T23:41:48.500Z,7.68
2023-04-18T23:44:50.224Z,6.13
2023-04-18T23:47:52.150Z,9.70
2023-04-18T23:50:54.126Z,6.05
2023-04-18T23:53:56.202Z,5.55
2023-04-18T23:56:58.479Z,6.10
